Pont Aven — FNPN — position and weather

sailwx.info

Track history (hours):
 
Tides and Currents Weather Stations Pressure Air Temp Water Temp Dewpoint Dewpoint Depression Visibility Wind Speed Wind Dir Waves Ship Positions

Pont Aven

Last reported at 2018-Feb-19 03:57 UTC. Time now 2018-Feb-19 10:14 UTC.
Position N 49°19' W 002°20'.

Length 185 m; beam 31 m.

Type: Passenger vessel. MMSI: 228183600.

Date/timePositionNaut miles runAvg speedWind from/ knotsBaromVisibWave heightAir tempDewpointWater temp
2018-Feb-19 03:57N 49°19' W 002°20'715.7
2018-Feb-19 03:31N 49°25' W 002°14'815.6
2018-Feb-19 03:00N 49°31' W 002°07'916.3
2018-Feb-19 02:27N 49°40' W 002°04'818.4
2018-Feb-19 02:00N 49°47' W 001°58'816.2
2018-Feb-19 01:30N 49°52' W 001°48'815.6
2018-Feb-19 01:00N 49°59' W 001°40'715.0
2018-Feb-19 00:31N 50°05' W 001°35'714.0
2018-Feb-19 00:01N 50°11' W 001°29'713.6
2018-Feb-18 23:30N 50°16' W 001°21'1613.0
2018-Feb-18 22:17N 50°29' W 001°07'412.4
2018-Feb-18 21:56N 50°32' W 001°03'512.7
2018-Feb-18 21:30N 50°37' W 000°60'611.6
2018-Feb-18 21:01N 50°43' W 001°01'510.8
2018-Feb-18 20:31N 50°47' W 001°06'2 3.4
2018-Feb-18 20:00N 50°49' W 001°06'0 0.0
2018-Feb-18 19:30N 50°49' W 001°06'0 0.0
2018-Feb-18 19:00N 50°49' W 001°06'0 0.0
2018-Feb-18 18:30N 50°49' W 001°06'0 0.0
2018-Feb-18 18:00N 50°49' W 001°06'0 0.0
2018-Feb-18 17:31N 50°49' W 001°06'0 0.0
2018-Feb-18 17:00N 50°49' W 001°06'0 0.0
2018-Feb-18 16:29N 50°49' W 001°06'0 0.0
2018-Feb-18 15:59N 50°49' W 001°06'0 0.0
2018-Feb-18 15:29N 50°49' W 001°06'0 0.0
2018-Feb-18 14:59N 50°49' W 001°06'0 0.0
2018-Feb-18 14:29N 50°49' W 001°06'0 0.0
2018-Feb-18 13:59N 50°49' W 001°06'0 0.0
2018-Feb-18 13:29N 50°49' W 001°06'0 0.0
2018-Feb-18 12:59N 50°49' W 001°06'0 0.0
2018-Feb-18 12:29N 50°49' W 001°06'0 0.0
2018-Feb-18 11:59N 50°49' W 001°06'0 0.0
2018-Feb-18 11:29N 50°49' W 001°06'0 0.0
2018-Feb-18 10:59N 50°49' W 001°06'0 0.0
2018-Feb-18 10:29N 50°49' W 001°06'0 0.0
2018-Feb-18 09:59N 50°49' W 001°06'0 0.0
2018-Feb-18 09:29N 50°49' W 001°06'0 0.0
2018-Feb-18 08:59N 50°49' W 001°06'0 0.0
2018-Feb-18 08:29N 50°49' W 001°06'0 0.0
2018-Feb-18 07:59N 50°49' W 001°06'1 1.5
2018-Feb-18 07:31N 50°48' W 001°07'510.5
2018-Feb-18 07:01N 50°44' W 001°03'510.6
2018-Feb-18 06:31N 50°39' W 001°00'3 5.0
2018-Feb-18 05:55N 50°36' W 001°02'1 1.6
2018-Feb-18 05:29N 50°36' W 001°01'2 5.1
2018-Feb-18 05:00N 50°34' W 000°59'612.4
2018-Feb-18 04:29N 50°29' W 001°07'612.2
2018-Feb-18 04:00N 50°25' W 001°13'912.4
2018-Feb-18 03:15N 50°17' W 001°20'811.7
2018-Feb-18 02:35N 50°11' W 001°28'112.1
2018-Feb-18 02:30N 50°11' W 001°30'612.6
2018-Feb-18 02:00N 50°05' W 001°35'612.8
2018-Feb-18 01:30N 50°00' W 001°41'713.2
2018-Feb-18 01:00N 49°55' W 001°48'713.7
2018-Feb-18 00:30N 49°50' W 001°55'3115.0
2018-Feb-17 22:28N 49°23' W 002°17'38 5.6
2018-Feb-17 15:40N 48°45' W 002°18'3 0.8
2018-Feb-17 11:39N 48°46' W 002°13'7 8.9
2018-Feb-17 10:49N 48°40' W 002°05'40 6.2
2018-Feb-17 04:22N 49°19' W 002°20'617.4
2018-Feb-17 04:00N 49°25' W 002°15'817.1
2018-Feb-17 03:30N 49°32' W 002°09'1116.9
2018-Feb-17 02:53N 49°42' W 002°03'718.2
2018-Feb-17 02:30N 49°48' W 001°57'816.0
2018-Feb-17 02:01N 49°54' W 001°50'815.4
2018-Feb-17 01:30N 50°01' W 001°43'714.7
2018-Feb-17 01:01N 50°07' W 001°37'714.8
2018-Feb-17 00:31N 50°12' W 001°28'714.0
2018-Feb-17 00:00N 50°16' W 001°20'1612.5
2018-Feb-16 22:44N 50°30' W 001°07'312.0
2018-Feb-16 22:30N 50°32' W 001°05'611.9
2018-Feb-16 22:00N 50°37' W 000°60'511.0
2018-Feb-16 21:30N 50°43' W 000°60'510.7
2018-Feb-16 21:00N 50°47' W 001°06'2 4.0
2018-Feb-16 20:30N 50°49' W 001°06'0 0.0
2018-Feb-16 20:00N 50°49' W 001°06'0 0.0
2018-Feb-16 19:30N 50°49' W 001°06'0 0.0
2018-Feb-16 19:00N 50°49' W 001°06'0 0.0
2018-Feb-16 18:30N 50°49' W 001°06'0 0.0
2018-Feb-16 18:00N 50°49' W 001°06'0 0.0
2018-Feb-16 17:30N 50°49' W 001°06'0 0.1
2018-Feb-16 17:00N 50°49' W 001°06'0 0.1
2018-Feb-16 16:30N 50°49' W 001°06'0 0.0
2018-Feb-16 16:00N 50°49' W 001°06'0 0.0
2018-Feb-16 15:30N 50°49' W 001°06'0 0.0
2018-Feb-16 15:00N 50°49' W 001°06'0 0.0
2018-Feb-16 14:30N 50°49' W 001°06'0 0.0
2018-Feb-16 14:00N 50°49' W 001°06'0 0.0
2018-Feb-16 13:30N 50°49' W 001°06'0 0.0
2018-Feb-16 13:00N 50°49' W 001°06'0 0.0
2018-Feb-16 12:30N 50°49' W 001°06'0 0.0
2018-Feb-16 12:00N 50°49' W 001°06'0 0.0
2018-Feb-16 11:30N 50°49' W 001°06'0 0.2
2018-Feb-16 11:00N 50°49' W 001°06'0 0.0
2018-Feb-16 10:30N 50°49' W 001°06'0 0.0
2018-Feb-16 10:00N 50°49' W 001°06'0 0.0
2018-Feb-16 09:30N 50°49' W 001°06'0 0.0
2018-Feb-16 09:00N 50°49' W 001°06'0 0.0
2018-Feb-16 08:30N 50°49' W 001°06'0 0.0
2018-Feb-16 08:00N 50°49' W 001°06'0 0.4
2018-Feb-16 07:30N 50°49' W 001°06'4 8.4
2018-Feb-16 07:01N 50°45' W 001°05'612.6
2018-Feb-16 06:30N 50°40' W 000°59'612.2
2018-Feb-16 06:01N 50°35' W 001°05'2413.1
2018-Feb-16 04:09N 50°14' W 001°26'213.8
2018-Feb-16 04:00N 50°13' W 001°28'713.9
2018-Feb-16 03:30N 50°07' W 001°34'713.9
2018-Feb-16 03:00N 50°02' W 001°41'713.7
2018-Feb-16 02:30N 49°56' W 001°47'713.8
2018-Feb-16 02:01N 49°51' W 001°54'712.9
2018-Feb-16 01:26N 49°45' W 002°00'510.4
2018-Feb-16 00:59N 49°41' W 002°04'613.4
2018-Feb-16 00:31N 49°35' W 002°09'814.9
2018-Feb-15 23:58N 49°28' W 002°13'715.2
2018-Feb-15 23:30N 49°22' W 002°20'914.0
2018-Feb-15 22:52N 49°18' W 002°32'7 0.4
2018-Feb-15 03:56N 49°22' W 002°22'614.4
2018-Feb-15 03:30N 49°25' W 002°15'815.7
2018-Feb-15 02:59N 49°33' W 002°09'1316.5
2018-Feb-15 02:12N 49°45' W 002°01'6114.6
2018-Feb-14 22:02N 50°34' W 001°05'013.0
2018-Feb-14 22:00N 50°34' W 001°04'612.7
2018-Feb-14 21:30N 50°39' W 000°59'510.9
2018-Feb-14 21:00N 50°44' W 001°04'5 9.5
2018-Feb-14 20:30N 50°48' W 001°07'1 1.7
2018-Feb-14 20:00N 50°49' W 001°06'0 0.0
2018-Feb-14 19:30N 50°49' W 001°06'0 0.0
2018-Feb-14 19:00N 50°49' W 001°06'0 0.0
2018-Feb-14 18:30N 50°49' W 001°06'0 0.0
2018-Feb-14 18:00N 50°49' W 001°06'0 0.0
2018-Feb-14 17:30N 50°49' W 001°06'0 0.0
2018-Feb-14 17:00N 50°49' W 001°06'0 0.0
2018-Feb-14 16:30N 50°49' W 001°06'0 0.0
2018-Feb-14 16:00N 50°49' W 001°06'0 0.0
2018-Feb-14 15:30N 50°49' W 001°06'0 0.0
2018-Feb-14 15:00N 50°49' W 001°06'0 0.0
2018-Feb-14 14:30N 50°49' W 001°06'0 0.0
2018-Feb-14 14:00N 50°49' W 001°06'0 0.0
2018-Feb-14 13:30N 50°49' W 001°06'0 0.0
2018-Feb-14 13:00N 50°49' W 001°06'0 0.0
2018-Feb-14 12:30N 50°49' W 001°06'0 0.0
2018-Feb-14 12:00N 50°49' W 001°06'0 0.0
2018-Feb-14 11:30N 50°49' W 001°06'0 0.0
2018-Feb-14 11:00N 50°49' W 001°06'0 0.0
2018-Feb-14 10:30N 50°49' W 001°06'0 0.0
2018-Feb-14 10:00N 50°49' W 001°06'0 0.0
2018-Feb-14 09:30N 50°49' W 001°06'0 0.0
2018-Feb-14 09:00N 50°49' W 001°06'0 0.0
2018-Feb-14 08:30N 50°49' W 001°06'0 0.0
2018-Feb-14 08:00N 50°49' W 001°06'0 0.0
2018-Feb-14 07:30N 50°49' W 001°06'1 1.7
2018-Feb-14 07:00N 50°48' W 001°07'510.3
2018-Feb-14 06:30N 50°44' W 001°03'713.4
2018-Feb-14 06:00N 50°37' W 001°01'815.7
2018-Feb-14 05:30N 50°31' W 001°08'1016.0
2018-Feb-14 04:52N 50°23' W 001°18'915.6
2018-Feb-14 04:17N 50°16' W 001°27'516.0
2018-Feb-14 03:58N 50°11' W 001°31'715.6
2018-Feb-14 03:31N 50°05' W 001°37'714.7
2018-Feb-14 03:01N 49°59' W 001°44'612.9
2018-Feb-14 02:30N 49°54' W 001°50'613.0
2018-Feb-14 02:00N 49°49' W 001°56'32 1.4
2018-Feb-13 03:37N 49°22' W 002°23'214.8
2018-Feb-13 03:30N 49°23' W 002°21'914.6
2018-Feb-13 02:55N 49°29' W 002°12'714.6
2018-Feb-13 02:28N 49°35' W 002°07'1014.7
2018-Feb-13 01:45N 49°45' W 002°01'414.8
2018-Feb-13 01:30N 49°48' W 001°57'714.8
2018-Feb-13 01:00N 49°53' W 001°50'815.2
2018-Feb-13 00:30N 49°59' W 001°42'715.2
2018-Feb-13 00:00N 50°05' W 001°36'815.1
2018-Feb-12 23:30N 50°12' W 001°30'815.2
2018-Feb-12 23:01N 50°18' W 001°23'1215.0
2018-Feb-12 22:13N 50°28' W 001°12'315.0
2018-Feb-12 22:00N 50°30' W 001°09'815.4
2018-Feb-12 21:30N 50°36' W 001°01'713.5
2018-Feb-12 21:01N 50°43' W 000°59'511.0
2018-Feb-12 20:31N 50°46' W 001°06'2 4.9
2018-Feb-12 20:01N 50°49' W 001°06'0 0.0
2018-Feb-12 19:31N 50°49' W 001°06'0 0.0
2018-Feb-12 19:00N 50°49' W 001°06'0 0.0
2018-Feb-12 18:31N 50°49' W 001°06'0 0.5
2018-Feb-12 18:00N 50°49' W 001°06'4 8.6
2018-Feb-12 17:30N 50°45' W 001°05'714.0
2018-Feb-12 17:00N 50°39' W 000°59'1017.5
2018-Feb-12 16:28N 50°31' W 001°08'2117.9
2018-Feb-12 15:17N 50°14' W 001°28'517.2
2018-Feb-12 15:00N 50°11' W 001°33'816.4
2018-Feb-12 14:31N 50°04' W 001°40'917.5
2018-Feb-12 14:00N 49°57' W 001°48'917.4
2018-Feb-12 13:30N 49°49' W 001°55'33 3.1
2018-Feb-12 03:00N 49°22' W 002°23'915.4
2018-Feb-12 02:23N 49°29' W 002°12'616.6
2018-Feb-12 02:00N 49°35' W 002°08'916.7
2018-Feb-12 01:27N 49°43' W 002°02'717.0
2018-Feb-12 01:00N 49°49' W 001°55'816.1
2018-Feb-12 00:31N 49°55' W 001°48'816.3
2018-Feb-12 00:01N 50°02' W 001°40'917.4
2018-Feb-11 23:30N 50°09' W 001°32'917.2
2018-Feb-11 23:00N 50°16' W 001°24'2117.5
2018-Feb-11 21:48N 50°33' W 001°04'517.7
2018-Feb-11 21:30N 50°37' W 001°00'612.4
2018-Feb-11 21:00N 50°44' W 001°02'510.0
2018-Feb-11 20:30N 50°48' W 001°07'1 2.5
2018-Feb-11 20:01N 50°49' W 001°06'0 0.0
2018-Feb-11 19:30N 50°49' W 001°06'0 0.0
2018-Feb-11 19:00N 50°49' W 001°06'0 0.0
2018-Feb-11 18:31N 50°49' W 001°06'0 0.0
2018-Feb-11 18:00N 50°49' W 001°06'0 0.0
2018-Feb-11 17:30N 50°49' W 001°06'0 0.0
2018-Feb-11 17:01N 50°49' W 001°06'0 0.0
2018-Feb-11 16:30N 50°49' W 001°06'0 0.0
2018-Feb-11 16:01N 50°49' W 001°06'0 0.0
2018-Feb-11 15:31N 50°49' W 001°06'0 0.0
2018-Feb-11 15:01N 50°49' W 001°06'0 0.0
2018-Feb-11 14:30N 50°49' W 001°06'0 0.0
2018-Feb-11 14:00N 50°49' W 001°06'0 0.0
2018-Feb-11 13:30N 50°49' W 001°06'0 0.0
2018-Feb-11 13:00N 50°49' W 001°06'0 0.0
2018-Feb-11 12:30N 50°49' W 001°06'0 0.0
2018-Feb-11 12:00N 50°49' W 001°06'0 0.0
2018-Feb-11 11:30N 50°49' W 001°06'0 0.0
2018-Feb-11 11:00N 50°49' W 001°06'0 0.0
2018-Feb-11 10:31N 50°49' W 001°06'0 0.0
2018-Feb-11 10:00N 50°49' W 001°06'0 0.0
2018-Feb-11 09:30N 50°49' W 001°06'0 0.0
2018-Feb-11 09:00N 50°49' W 001°06'0 0.0
2018-Feb-11 08:30N 50°49' W 001°06'0 0.0
2018-Feb-11 08:00N 50°49' W 001°06'0 0.2
2018-Feb-11 07:30N 50°49' W 001°06'4 7.6
2018-Feb-11 07:01N 50°45' W 001°05'611.5
2018-Feb-11 06:30N 50°39' W 001°05'918.3
2018-Feb-11 06:00N 50°32' W 001°13'2017.9
2018-Feb-11 04:54N 50°14' W 001°28'717.9
2018-Feb-11 04:30N 50°08' W 001°34'918.3
2018-Feb-11 04:00N 50°01' W 001°42'918.4
2018-Feb-11 03:30N 49°53' W 001°51'918.4
2018-Feb-11 03:00N 49°46' W 001°59'918.9
2018-Feb-11 02:30N 49°38' W 002°06'1017.2
2018-Feb-11 01:55N 49°28' W 002°13'610.3
2018-Feb-11 01:19N 49°23' W 002°18'6 9.9
2018-Feb-11 00:44N 49°19' W 002°23'2 0.1
2018-Feb-10 03:03N 49°19' W 002°20'115.5
2018-Feb-10 02:59N 49°20' W 002°19'816.4
2018-Feb-10 02:30N 49°27' W 002°13'816.3
2018-Feb-10 02:00N 49°35' W 002°08'1315.4
2018-Feb-10 01:10N 49°46' W 001°59'216.4
2018-Feb-10 01:01N 49°48' W 001°57'917.0
2018-Feb-10 00:30N 49°55' W 001°50'917.5
2018-Feb-10 00:00N 50°03' W 001°43'917.8
2018-Feb-09 23:30N 50°09' W 001°33'1018.0
2018-Feb-09 22:57N 50°16' W 001°22'2117.9
2018-Feb-09 21:48N 50°34' W 001°05'518.2
2018-Feb-09 21:30N 50°38' W 001°00'611.1
2018-Feb-09 21:00N 50°44' W 001°02'6 5.6
2018-Feb-09 20:01N 50°49' W 001°06'0 0.0
2018-Feb-09 19:30N 50°49' W 001°06'0 0.0
2018-Feb-09 19:00N 50°49' W 001°06'0 0.0
2018-Feb-09 18:30N 50°49' W 001°06'0 0.0
2018-Feb-09 18:00N 50°49' W 001°06'0 0.0
2018-Feb-09 17:31N 50°49' W 001°06'0 0.0
2018-Feb-09 17:01N 50°49' W 001°06'0 0.0
2018-Feb-09 16:30N 50°49' W 001°06'0 0.0
2018-Feb-09 16:00N 50°49' W 001°06'0 0.0
2018-Feb-09 15:30N 50°49' W 001°06'0 0.0
2018-Feb-09 15:00N 50°49' W 001°06'0 0.0
2018-Feb-09 14:30N 50°49' W 001°06'0 0.0
2018-Feb-09 14:00N 50°49' W 001°06'0 0.0
2018-Feb-09 13:30N 50°49' W 001°06'0 0.0
2018-Feb-09 12:30N 50°49' W 001°06'0 0.0
2018-Feb-09 11:31N 50°49' W 001°06'0 0.0
2018-Feb-09 11:00N 50°49' W 001°06'0 0.0
2018-Feb-09 10:00N 50°49' W 001°06'0 0.0
2018-Feb-09 09:30N 50°49' W 001°06'0 0.0
2018-Feb-09 09:00N 50°49' W 001°06'0 0.0
2018-Feb-09 08:30N 50°49' W 001°06'0 0.0
2018-Feb-09 08:00N 50°49' W 001°06'1 1.3
2018-Feb-09 07:30N 50°48' W 001°07'611.4
2018-Feb-09 07:00N 50°43' W 001°03'714.5
2018-Feb-09 06:30N 50°37' W 001°07'3316.3
2018-Feb-09 04:30N 50°09' W 001°35'816.9
2018-Feb-09 04:00N 50°02' W 001°42'  
Track history (hours):
 
Tides and Currents Weather Stations Pressure Air Temp Water Temp Dewpoint Dewpoint Depression Visibility Wind Speed Wind Dir Waves Ship Positions

Pont Aven

Last reported at 2018-Feb-19 03:57 UTC. Time now 2018-Feb-19 10:14 UTC.
Position N 49°19' W 002°20'.

Length 185 m; beam 31 m.

Type: Passenger vessel. MMSI: 228183600.

Date/timePositionNaut miles runAvg speedWind from/ knotsBaromVisibWave heightAir tempDewpointWater temp
2018-Feb-19 03:57N 49°19' W 002°20'715.7
2018-Feb-19 03:31N 49°25' W 002°14'815.6
2018-Feb-19 03:00N 49°31' W 002°07'916.3
2018-Feb-19 02:27N 49°40' W 002°04'818.4
2018-Feb-19 02:00N 49°47' W 001°58'816.2
2018-Feb-19 01:30N 49°52' W 001°48'815.6
2018-Feb-19 01:00N 49°59' W 001°40'715.0
2018-Feb-19 00:31N 50°05' W 001°35'714.0
2018-Feb-19 00:01N 50°11' W 001°29'713.6
2018-Feb-18 23:30N 50°16' W 001°21'1613.0
2018-Feb-18 22:17N 50°29' W 001°07'412.4
2018-Feb-18 21:56N 50°32' W 001°03'512.7
2018-Feb-18 21:30N 50°37' W 000°60'611.6
2018-Feb-18 21:01N 50°43' W 001°01'510.8
2018-Feb-18 20:31N 50°47' W 001°06'2 3.4
2018-Feb-18 20:00N 50°49' W 001°06'0 0.0
2018-Feb-18 19:30N 50°49' W 001°06'0 0.0
2018-Feb-18 19:00N 50°49' W 001°06'0 0.0
2018-Feb-18 18:30N 50°49' W 001°06'0 0.0
2018-Feb-18 18:00N 50°49' W 001°06'0 0.0
2018-Feb-18 17:31N 50°49' W 001°06'0 0.0
2018-Feb-18 17:00N 50°49' W 001°06'0 0.0
2018-Feb-18 16:29N 50°49' W 001°06'0 0.0
2018-Feb-18 15:59N 50°49' W 001°06'0 0.0
2018-Feb-18 15:29N 50°49' W 001°06'0 0.0
2018-Feb-18 14:59N 50°49' W 001°06'0 0.0
2018-Feb-18 14:29N 50°49' W 001°06'0 0.0
2018-Feb-18 13:59N 50°49' W 001°06'0 0.0
2018-Feb-18 13:29N 50°49' W 001°06'0 0.0
2018-Feb-18 12:59N 50°49' W 001°06'0 0.0
2018-Feb-18 12:29N 50°49' W 001°06'0 0.0
2018-Feb-18 11:59N 50°49' W 001°06'0 0.0
2018-Feb-18 11:29N 50°49' W 001°06'0 0.0
2018-Feb-18 10:59N 50°49' W 001°06'0 0.0
2018-Feb-18 10:29N 50°49' W 001°06'0 0.0
2018-Feb-18 09:59N 50°49' W 001°06'0 0.0
2018-Feb-18 09:29N 50°49' W 001°06'0 0.0
2018-Feb-18 08:59N 50°49' W 001°06'0 0.0
2018-Feb-18 08:29N 50°49' W 001°06'0 0.0
2018-Feb-18 07:59N 50°49' W 001°06'1 1.5
2018-Feb-18 07:31N 50°48' W 001°07'510.5
2018-Feb-18 07:01N 50°44' W 001°03'510.6
2018-Feb-18 06:31N 50°39' W 001°00'3 5.0
2018-Feb-18 05:55N 50°36' W 001°02'1 1.6
2018-Feb-18 05:29N 50°36' W 001°01'2 5.1
2018-Feb-18 05:00N 50°34' W 000°59'612.4
2018-Feb-18 04:29N 50°29' W 001°07'612.2
2018-Feb-18 04:00N 50°25' W 001°13'912.4
2018-Feb-18 03:15N 50°17' W 001°20'811.7
2018-Feb-18 02:35N 50°11' W 001°28'112.1
2018-Feb-18 02:30N 50°11' W 001°30'612.6
2018-Feb-18 02:00N 50°05' W 001°35'612.8
2018-Feb-18 01:30N 50°00' W 001°41'713.2
2018-Feb-18 01:00N 49°55' W 001°48'713.7
2018-Feb-18 00:30N 49°50' W 001°55'3115.0
2018-Feb-17 22:28N 49°23' W 002°17'38 5.6
2018-Feb-17 15:40N 48°45' W 002°18'3 0.8
2018-Feb-17 11:39N 48°46' W 002°13'7 8.9
2018-Feb-17 10:49N 48°40' W 002°05'40 6.2
2018-Feb-17 04:22N 49°19' W 002°20'617.4
2018-Feb-17 04:00N 49°25' W 002°15'817.1
2018-Feb-17 03:30N 49°32' W 002°09'1116.9
2018-Feb-17 02:53N 49°42' W 002°03'718.2
2018-Feb-17 02:30N 49°48' W 001°57'816.0
2018-Feb-17 02:01N 49°54' W 001°50'815.4
2018-Feb-17 01:30N 50°01' W 001°43'714.7
2018-Feb-17 01:01N 50°07' W 001°37'714.8
2018-Feb-17 00:31N 50°12' W 001°28'714.0
2018-Feb-17 00:00N 50°16' W 001°20'1612.5
2018-Feb-16 22:44N 50°30' W 001°07'312.0
2018-Feb-16 22:30N 50°32' W 001°05'611.9
2018-Feb-16 22:00N 50°37' W 000°60'511.0
2018-Feb-16 21:30N 50°43' W 000°60'510.7
2018-Feb-16 21:00N 50°47' W 001°06'2 4.0
2018-Feb-16 20:30N 50°49' W 001°06'0 0.0
2018-Feb-16 20:00N 50°49' W 001°06'0 0.0
2018-Feb-16 19:30N 50°49' W 001°06'0 0.0
2018-Feb-16 19:00N 50°49' W 001°06'0 0.0
2018-Feb-16 18:30N 50°49' W 001°06'0 0.0
2018-Feb-16 18:00N 50°49' W 001°06'0 0.0
2018-Feb-16 17:30N 50°49' W 001°06'0 0.1
2018-Feb-16 17:00N 50°49' W 001°06'0 0.1
2018-Feb-16 16:30N 50°49' W 001°06'0 0.0
2018-Feb-16 16:00N 50°49' W 001°06'0 0.0
2018-Feb-16 15:30N 50°49' W 001°06'0 0.0
2018-Feb-16 15:00N 50°49' W 001°06'0 0.0
2018-Feb-16 14:30N 50°49' W 001°06'0 0.0
2018-Feb-16 14:00N 50°49' W 001°06'0 0.0
2018-Feb-16 13:30N 50°49' W 001°06'0 0.0
2018-Feb-16 13:00N 50°49' W 001°06'0 0.0
2018-Feb-16 12:30N 50°49' W 001°06'0 0.0
2018-Feb-16 12:00N 50°49' W 001°06'0 0.0
2018-Feb-16 11:30N 50°49' W 001°06'0 0.2
2018-Feb-16 11:00N 50°49' W 001°06'0 0.0
2018-Feb-16 10:30N 50°49' W 001°06'0 0.0
2018-Feb-16 10:00N 50°49' W 001°06'0 0.0
2018-Feb-16 09:30N 50°49' W 001°06'0 0.0
2018-Feb-16 09:00N 50°49' W 001°06'0 0.0
2018-Feb-16 08:30N 50°49' W 001°06'0 0.0
2018-Feb-16 08:00N 50°49' W 001°06'0 0.4
2018-Feb-16 07:30N 50°49' W 001°06'4 8.4
2018-Feb-16 07:01N 50°45' W 001°05'612.6
2018-Feb-16 06:30N 50°40' W 000°59'612.2
2018-Feb-16 06:01N 50°35' W 001°05'2413.1
2018-Feb-16 04:09N 50°14' W 001°26'213.8
2018-Feb-16 04:00N 50°13' W 001°28'713.9
2018-Feb-16 03:30N 50°07' W 001°34'713.9
2018-Feb-16 03:00N 50°02' W 001°41'713.7
2018-Feb-16 02:30N 49°56' W 001°47'713.8
2018-Feb-16 02:01N 49°51' W 001°54'712.9
2018-Feb-16 01:26N 49°45' W 002°00'510.4
2018-Feb-16 00:59N 49°41' W 002°04'613.4
2018-Feb-16 00:31N 49°35' W 002°09'814.9
2018-Feb-15 23:58N 49°28' W 002°13'715.2
2018-Feb-15 23:30N 49°22' W 002°20'914.0
2018-Feb-15 22:52N 49°18' W 002°32'7 0.4
2018-Feb-15 03:56N 49°22' W 002°22'614.4
2018-Feb-15 03:30N 49°25' W 002°15'815.7
2018-Feb-15 02:59N 49°33' W 002°09'1316.5
2018-Feb-15 02:12N 49°45' W 002°01'6114.6
2018-Feb-14 22:02N 50°34' W 001°05'013.0
2018-Feb-14 22:00N 50°34' W 001°04'612.7
2018-Feb-14 21:30N 50°39' W 000°59'510.9
2018-Feb-14 21:00N 50°44' W 001°04'5 9.5
2018-Feb-14 20:30N 50°48' W 001°07'1 1.7
2018-Feb-14 20:00N 50°49' W 001°06'0 0.0
2018-Feb-14 19:30N 50°49' W 001°06'0 0.0
2018-Feb-14 19:00N 50°49' W 001°06'0 0.0
2018-Feb-14 18:30N 50°49' W 001°06'0 0.0
2018-Feb-14 18:00N 50°49' W 001°06'0 0.0
2018-Feb-14 17:30N 50°49' W 001°06'0 0.0
2018-Feb-14 17:00N 50°49' W 001°06'0 0.0
2018-Feb-14 16:30N 50°49' W 001°06'0 0.0
2018-Feb-14 16:00N 50°49' W 001°06'0 0.0
2018-Feb-14 15:30N 50°49' W 001°06'0 0.0
2018-Feb-14 15:00N 50°49' W 001°06'0 0.0
2018-Feb-14 14:30N 50°49' W 001°06'0 0.0
2018-Feb-14 14:00N 50°49' W 001°06'0 0.0
2018-Feb-14 13:30N 50°49' W 001°06'0 0.0
2018-Feb-14 13:00N 50°49' W 001°06'0 0.0
2018-Feb-14 12:30N 50°49' W 001°06'0 0.0
2018-Feb-14 12:00N 50°49' W 001°06'0 0.0
2018-Feb-14 11:30N 50°49' W 001°06'0 0.0
2018-Feb-14 11:00N 50°49' W 001°06'0 0.0
2018-Feb-14 10:30N 50°49' W 001°06'0 0.0
2018-Feb-14 10:00N 50°49' W 001°06'0 0.0
2018-Feb-14 09:30N 50°49' W 001°06'0 0.0
2018-Feb-14 09:00N 50°49' W 001°06'0 0.0
2018-Feb-14 08:30N 50°49' W 001°06'0 0.0
2018-Feb-14 08:00N 50°49' W 001°06'0 0.0
2018-Feb-14 07:30N 50°49' W 001°06'1 1.7
2018-Feb-14 07:00N 50°48' W 001°07'510.3
2018-Feb-14 06:30N 50°44' W 001°03'713.4
2018-Feb-14 06:00N 50°37' W 001°01'815.7
2018-Feb-14 05:30N 50°31' W 001°08'1016.0
2018-Feb-14 04:52N 50°23' W 001°18'915.6
2018-Feb-14 04:17N 50°16' W 001°27'516.0
2018-Feb-14 03:58N 50°11' W 001°31'715.6
2018-Feb-14 03:31N 50°05' W 001°37'714.7
2018-Feb-14 03:01N 49°59' W 001°44'612.9
2018-Feb-14 02:30N 49°54' W 001°50'613.0
2018-Feb-14 02:00N 49°49' W 001°56'32 1.4
2018-Feb-13 03:37N 49°22' W 002°23'214.8
2018-Feb-13 03:30N 49°23' W 002°21'914.6
2018-Feb-13 02:55N 49°29' W 002°12'714.6
2018-Feb-13 02:28N 49°35' W 002°07'1014.7
2018-Feb-13 01:45N 49°45' W 002°01'414.8
2018-Feb-13 01:30N 49°48' W 001°57'714.8
2018-Feb-13 01:00N 49°53' W 001°50'815.2
2018-Feb-13 00:30N 49°59' W 001°42'715.2
2018-Feb-13 00:00N 50°05' W 001°36'815.1
2018-Feb-12 23:30N 50°12' W 001°30'815.2
2018-Feb-12 23:01N 50°18' W 001°23'1215.0
2018-Feb-12 22:13N 50°28' W 001°12'315.0
2018-Feb-12 22:00N 50°30' W 001°09'815.4
2018-Feb-12 21:30N 50°36' W 001°01'713.5
2018-Feb-12 21:01N 50°43' W 000°59'511.0
2018-Feb-12 20:31N 50°46' W 001°06'2 4.9
2018-Feb-12 20:01N 50°49' W 001°06'0 0.0
2018-Feb-12 19:31N 50°49' W 001°06'0 0.0
2018-Feb-12 19:00N 50°49' W 001°06'0 0.0
2018-Feb-12 18:31N 50°49' W 001°06'0 0.5
2018-Feb-12 18:00N 50°49' W 001°06'4 8.6
2018-Feb-12 17:30N 50°45' W 001°05'714.0
2018-Feb-12 17:00N 50°39' W 000°59'1017.5
2018-Feb-12 16:28N 50°31' W 001°08'2117.9
2018-Feb-12 15:17N 50°14' W 001°28'517.2
2018-Feb-12 15:00N 50°11' W 001°33'816.4
2018-Feb-12 14:31N 50°04' W 001°40'917.5
2018-Feb-12 14:00N 49°57' W 001°48'917.4
2018-Feb-12 13:30N 49°49' W 001°55'33 3.1
2018-Feb-12 03:00N 49°22' W 002°23'915.4
2018-Feb-12 02:23N 49°29' W 002°12'616.6
2018-Feb-12 02:00N 49°35' W 002°08'916.7
2018-Feb-12 01:27N 49°43' W 002°02'717.0
2018-Feb-12 01:00N 49°49' W 001°55'816.1
2018-Feb-12 00:31N 49°55' W 001°48'816.3
2018-Feb-12 00:01N 50°02' W 001°40'917.4
2018-Feb-11 23:30N 50°09' W 001°32'917.2
2018-Feb-11 23:00N 50°16' W 001°24'2117.5
2018-Feb-11 21:48N 50°33' W 001°04'517.7
2018-Feb-11 21:30N 50°37' W 001°00'612.4
2018-Feb-11 21:00N 50°44' W 001°02'510.0
2018-Feb-11 20:30N 50°48' W 001°07'1 2.5
2018-Feb-11 20:01N 50°49' W 001°06'0 0.0
2018-Feb-11 19:30N 50°49' W 001°06'0 0.0
2018-Feb-11 19:00N 50°49' W 001°06'0 0.0
2018-Feb-11 18:31N 50°49' W 001°06'0 0.0
2018-Feb-11 18:00N 50°49' W 001°06'0 0.0
2018-Feb-11 17:30N 50°49' W 001°06'0 0.0
2018-Feb-11 17:01N 50°49' W 001°06'0 0.0
2018-Feb-11 16:30N 50°49' W 001°06'0 0.0
2018-Feb-11 16:01N 50°49' W 001°06'0 0.0
2018-Feb-11 15:31N 50°49' W 001°06'0 0.0
2018-Feb-11 15:01N 50°49' W 001°06'0 0.0
2018-Feb-11 14:30N 50°49' W 001°06'0 0.0
2018-Feb-11 14:00N 50°49' W 001°06'0 0.0
2018-Feb-11 13:30N 50°49' W 001°06'0 0.0
2018-Feb-11 13:00N 50°49' W 001°06'0 0.0
2018-Feb-11 12:30N 50°49' W 001°06'0 0.0
2018-Feb-11 12:00N 50°49' W 001°06'0 0.0
2018-Feb-11 11:30N 50°49' W 001°06'0 0.0
2018-Feb-11 11:00N 50°49' W 001°06'0 0.0
2018-Feb-11 10:31N 50°49' W 001°06'0 0.0
2018-Feb-11 10:00N 50°49' W 001°06'0 0.0
2018-Feb-11 09:30N 50°49' W 001°06'0 0.0
2018-Feb-11 09:00N 50°49' W 001°06'0 0.0
2018-Feb-11 08:30N 50°49' W 001°06'0 0.0
2018-Feb-11 08:00N 50°49' W 001°06'0 0.2
2018-Feb-11 07:30N 50°49' W 001°06'4 7.6
2018-Feb-11 07:01N 50°45' W 001°05'611.5
2018-Feb-11 06:30N 50°39' W 001°05'918.3
2018-Feb-11 06:00N 50°32' W 001°13'2017.9
2018-Feb-11 04:54N 50°14' W 001°28'717.9
2018-Feb-11 04:30N 50°08' W 001°34'918.3
2018-Feb-11 04:00N 50°01' W 001°42'918.4
2018-Feb-11 03:30N 49°53' W 001°51'918.4
2018-Feb-11 03:00N 49°46' W 001°59'918.9
2018-Feb-11 02:30N 49°38' W 002°06'1017.2
2018-Feb-11 01:55N 49°28' W 002°13'610.3
2018-Feb-11 01:19N 49°23' W 002°18'6 9.9
2018-Feb-11 00:44N 49°19' W 002°23'2 0.1
2018-Feb-10 03:03N 49°19' W 002°20'115.5
2018-Feb-10 02:59N 49°20' W 002°19'816.4
2018-Feb-10 02:30N 49°27' W 002°13'816.3
2018-Feb-10 02:00N 49°35' W 002°08'1315.4
2018-Feb-10 01:10N 49°46' W 001°59'216.4
2018-Feb-10 01:01N 49°48' W 001°57'917.0
2018-Feb-10 00:30N 49°55' W 001°50'917.5
2018-Feb-10 00:00N 50°03' W 001°43'917.8
2018-Feb-09 23:30N 50°09' W 001°33'1018.0
2018-Feb-09 22:57N 50°16' W 001°22'2117.9
2018-Feb-09 21:48N 50°34' W 001°05'518.2
2018-Feb-09 21:30N 50°38' W 001°00'611.1
2018-Feb-09 21:00N 50°44' W 001°02'6 5.6
2018-Feb-09 20:01N 50°49' W 001°06'0 0.0
2018-Feb-09 19:30N 50°49' W 001°06'0 0.0
2018-Feb-09 19:00N 50°49' W 001°06'0 0.0
2018-Feb-09 18:30N 50°49' W 001°06'0 0.0
2018-Feb-09 18:00N 50°49' W 001°06'0 0.0
2018-Feb-09 17:31N 50°49' W 001°06'0 0.0
2018-Feb-09 17:01N 50°49' W 001°06'0 0.0
2018-Feb-09 16:30N 50°49' W 001°06'0 0.0
2018-Feb-09 16:00N 50°49' W 001°06'0 0.0
2018-Feb-09 15:30N 50°49' W 001°06'0 0.0
2018-Feb-09 15:00N 50°49' W 001°06'0 0.0
2018-Feb-09 14:30N 50°49' W 001°06'0 0.0
2018-Feb-09 14:00N 50°49' W 001°06'0 0.0
2018-Feb-09 13:30N 50°49' W 001°06'0 0.0
2018-Feb-09 12:30N 50°49' W 001°06'0 0.0
2018-Feb-09 11:31N 50°49' W 001°06'0 0.0
2018-Feb-09 11:00N 50°49' W 001°06'0 0.0
2018-Feb-09 10:00N 50°49' W 001°06'0 0.0
2018-Feb-09 09:30N 50°49' W 001°06'0 0.0
2018-Feb-09 09:00N 50°49' W 001°06'0 0.0
2018-Feb-09 08:30N 50°49' W 001°06'0 0.0
2018-Feb-09 08:00N 50°49' W 001°06'1 1.3
2018-Feb-09 07:30N 50°48' W 001°07'611.4
2018-Feb-09 07:00N 50°43' W 001°03'714.5
2018-Feb-09 06:30N 50°37' W 001°07'3316.3
2018-Feb-09 04:30N 50°09' W 001°35'816.9
2018-Feb-09 04:00N 50°02' W 001°42'  

Dump ship's entire track history